Stanton, Texas
Current Conditions -  °F | °C
As of 2:55 PM on Tuesday 25 Nov 2014 (Local Time) from KBPG Reporting Station
Clear Clear  
Wind Chill: 59°   Ceiling: Unl
Heat Index: 59°   Visibility: 10mi
Dew Point: 20°   Wind: 14mph
Humidity: 22%   Direction: 240°WSW
Pressure: 30.25"   Gusts: 22mph
Location:  32.13°N, 101.79°W
Report Text: KBPG 252055Z AUTO 24012G19KT 10SM CLR 15/M07 A3025 RMK AO2 T01481068
Loading
Personal Weather Stations






























Interactive Weather Map New forecast layout! Learn more

10-Day Weather Forecast

Advertisements
Track Severe Weather on mobile